Terminal Aerodrome Forecast
Issued by NWS Duluth, MN

Home | Current Version | Previous Version | Text Only | Print | Product List | Glossary On
Versions: 1 2 3 4 5 6 7 8 9 10 11 12 13 14 15 16 17 18 19 20 21 22 23 24 25
000
FTUS43 KDLH 230900 AAB
TAFDLH
TAF AMD
KDLH 230907Z 2309/2406 17008KT 6SM -RA BR SCT012 OVC025
     FM231100 19005KT 5SM BR SCT004 OVC012
      TEMPO 2311/2315 2SM BR BKN008
     FM231600 23008KT P6SM SCT025
     FM240000 18004KT P6SM SKC=

USA.gov is the U.S. government's official web portal to all federal, state and local government web resources and services.